createdAt,value
2022-10-05T00:00:55.825Z,100837.16
2022-10-05T00:03:00.097Z,100835.36
2022-10-05T00:05:04.582Z,100836.09
2022-10-05T00:07:09.060Z,100844.25
2022-10-05T00:09:13.376Z,100847.63
2022-10-05T00:11:17.690Z,100841.19
2022-10-05T00:13:22.003Z,100842.3
2022-10-05T00:15:26.315Z,100842.09
2022-10-05T00:17:30.632Z,100843.28
2022-10-05T00:19:35.023Z,100843.33
2022-10-05T00:21:39.337Z,100836.02
2022-10-05T00:23:43.779Z,100834.26
2022-10-05T00:25:48.098Z,100830.2
2022-10-05T00:27:52.575Z,100821.45
2022-10-05T00:29:56.975Z,100816.16
2022-10-05T00:32:01.467Z,100814.93
2022-10-05T00:34:05.959Z,100817.54
2022-10-05T00:36:10.288Z,100811.17
2022-10-05T00:38:14.648Z,100810.95
2022-10-05T00:40:18.964Z,100807.06
2022-10-05T00:42:23.310Z,100799.39
2022-10-05T00:44:27.636Z,100790.05
2022-10-05T00:46:31.952Z,100791.17
2022-10-05T00:48:36.264Z,100799.47
2022-10-05T00:50:40.856Z,100800.42
2022-10-05T00:52:45.154Z,100801.3
2022-10-05T00:54:49.475Z,100804.36
2022-10-05T00:56:53.827Z,100805.73
2022-10-05T00:58:58.170Z,100800.53
2022-10-05T01:01:02.633Z,100800.89
2022-10-05T01:03:07.129Z,100794.5
2022-10-05T01:05:11.439Z,100792.8
2022-10-05T01:07:15.765Z,100793.03
2022-10-05T01:09:20.102Z,100794.99
2022-10-05T01:11:24.423Z,100792.66
2022-10-05T01:13:28.780Z,100790.2
2022-10-05T01:15:33.119Z,100783.64
2022-10-05T01:17:37.479Z,100786.15
2022-10-05T01:19:41.851Z,100784.21
2022-10-05T01:21:46.172Z,100784.69
2022-10-05T01:23:50.556Z,100784
2022-10-05T01:25:54.928Z,100787.88
2022-10-05T01:27:59.457Z,100785.35
2022-10-05T01:30:03.947Z,100778
2022-10-05T01:32:08.371Z,100773.89
2022-10-05T01:34:12.812Z,100776.19
2022-10-05T01:36:17.172Z,100776.21
2022-10-05T01:38:21.490Z,100775.97
2022-10-05T01:40:25.829Z,100778.3
2022-10-05T01:42:30.198Z,100776.08
2022-10-05T01:44:34.517Z,100778.45
2022-10-05T01:46:38.877Z,100776.91
2022-10-05T01:48:43.199Z,100773.25
2022-10-05T01:50:47.588Z,100777.56
2022-10-05T01:52:51.901Z,100776.02
2022-10-05T01:54:56.221Z,100776.52
2022-10-05T01:57:00.570Z,100784.03
2022-10-05T01:59:05.004Z,100778.72
2022-10-05T02:01:09.569Z,100767.53
2022-10-05T02:03:14.018Z,100768.92
2022-10-05T02:05:18.377Z,100772.79
2022-10-05T02:07:22.759Z,100777.84
2022-10-05T02:09:27.112Z,100784.88
2022-10-05T02:11:31.466Z,100788.61
2022-10-05T02:13:35.808Z,100789.8
2022-10-05T02:15:40.272Z,100796
2022-10-05T02:17:44.737Z,100795.11
2022-10-05T02:19:49.056Z,100792.85
2022-10-05T02:21:53.376Z,100792.53
2022-10-05T02:23:57.729Z,100787.7
2022-10-05T02:26:02.048Z,100781.47
2022-10-05T02:28:06.443Z,100773.41
2022-10-05T02:30:17.276Z,100778.48
2022-10-05T02:32:21.576Z,100771.38
2022-10-05T02:34:25.996Z,100766.41
2022-10-05T02:36:30.296Z,100767.14
2022-10-05T02:38:34.646Z,100763.06
2022-10-05T02:40:38.986Z,100766.77
2022-10-05T02:42:43.331Z,100762.78
2022-10-05T02:44:47.674Z,100767.54
2022-10-05T02:46:58.380Z,100763.38
2022-10-05T02:49:02.960Z,100763.73
2022-10-05T02:51:07.275Z,100765.61
2022-10-05T02:53:11.627Z,100760.44
2022-10-05T02:55:15.979Z,100759.45
2022-10-05T02:57:20.331Z,100760.19
2022-10-05T02:59:24.663Z,100762.94
2022-10-05T03:01:29.126Z,100763.11
2022-10-05T03:03:33.672Z,100762.92
2022-10-05T03:05:37.960Z,100761.09
2022-10-05T03:07:42.274Z,100753.31
2022-10-05T03:09:46.600Z,100752.34
2022-10-05T03:11:50.905Z,100750.84
2022-10-05T03:13:55.250Z,100745.52
2022-10-05T03:15:59.683Z,100742.16
2022-10-05T03:18:04.180Z,100739.8
2022-10-05T03:20:08.494Z,100731.23
2022-10-05T03:22:12.841Z,100727.77
2022-10-05T03:24:17.166Z,100732.38
2022-10-05T03:26:21.471Z,100733.48
2022-10-05T03:28:26.025Z,100730.44
2022-10-05T03:30:30.567Z,100727.78
2022-10-05T03:32:34.919Z,100721.94
2022-10-05T03:34:39.273Z,100727.14
2022-10-05T03:36:44.207Z,100728.91
2022-10-05T03:38:49.122Z,100733.43
2022-10-05T03:40:53.486Z,100738.59
2022-10-05T03:42:57.824Z,100739.52
2022-10-05T03:45:02.153Z,100735.79
2022-10-05T03:47:06.472Z,100731
2022-10-05T03:49:10.835Z,100732.05
2022-10-05T03:51:15.201Z,100729.41
2022-10-05T03:53:19.528Z,100727.35
2022-10-05T03:55:23.860Z,100732.66
2022-10-05T03:57:28.191Z,100734.02
2022-10-05T03:59:33.839Z,100736.37
2022-10-05T04:01:38.282Z,100745.89
2022-10-05T04:03:42.676Z,100748.03
2022-10-05T04:05:47.001Z,100745.19
2022-10-05T04:07:51.329Z,100749.19
2022-10-05T04:09:55.668Z,100741.56
2022-10-05T04:12:00.019Z,100737.47
2022-10-05T04:14:04.344Z,100727.27
2022-10-05T04:16:09.031Z,100726.14
2022-10-05T04:18:13.802Z,100723.89
2022-10-05T04:20:18.100Z,100726.54
2022-10-05T04:22:22.445Z,100720.52
2022-10-05T04:24:26.793Z,100730.63
2022-10-05T04:26:31.100Z,100730.23
2022-10-05T04:28:35.719Z,100727.44
2022-10-05T04:30:40.161Z,100728.15
2022-10-05T04:32:44.503Z,100715.86
2022-10-05T04:34:48.901Z,100713.91
2022-10-05T04:36:53.225Z,100714.7
2022-10-05T04:38:57.583Z,100711.91
2022-10-05T04:41:01.943Z,100710.14
2022-10-05T04:43:06.270Z,100707.84
2022-10-05T04:45:10.665Z,100695.97
2022-10-05T04:47:15.009Z,100689
2022-10-05T04:49:19.340Z,100694.84
2022-10-05T04:51:23.728Z,100703.17
2022-10-05T04:53:28.056Z,100700.95
2022-10-05T04:55:32.372Z,100697.37
2022-10-05T04:57:36.704Z,100693.27
2022-10-05T04:59:41.018Z,100697.16
2022-10-05T05:01:45.362Z,100699.66
2022-10-05T05:03:49.872Z,100693.21
2022-10-05T05:06:18.305Z,100696.98
2022-10-05T05:08:22.931Z,100701.02
2022-10-05T05:10:27.275Z,100699.63
2022-10-05T05:12:31.757Z,100701.88
2022-10-05T05:14:36.118Z,100704.2
2022-10-05T05:16:40.610Z,100707.92
2022-10-05T05:18:44.963Z,100705.91
2022-10-05T05:20:49.283Z,100706.67
2022-10-05T05:22:53.665Z,100709.95
2022-10-05T05:24:57.977Z,100709.34
2022-10-05T05:27:02.340Z,100707
2022-10-05T05:29:06.736Z,100713.27
2022-10-05T05:31:11.354Z,100708.27
2022-10-05T05:33:15.851Z,100706.07
2022-10-05T05:35:20.215Z,100705.53
2022-10-05T05:37:24.565Z,100708.44
2022-10-05T05:39:28.933Z,100709.45
2022-10-05T05:41:33.269Z,100713.41
2022-10-05T05:43:37.604Z,100713.62
2022-10-05T05:45:41.955Z,100719.48
2022-10-05T05:47:46.434Z,100725.27
2022-10-05T05:49:50.922Z,100729.7
2022-10-05T05:51:55.245Z,100730.42
2022-10-05T05:53:59.570Z,100725.93
2022-10-05T05:56:03.942Z,100723.75
2022-10-05T05:58:08.311Z,100730.22
2022-10-05T06:00:12.672Z,100731.48
2022-10-05T06:02:17.317Z,100733.59
2022-10-05T06:04:21.862Z,100734.89
2022-10-05T06:06:26.283Z,100728.83
2022-10-05T06:08:30.658Z,100723.17
2022-10-05T06:10:34.997Z,100727.57
2022-10-05T06:12:39.368Z,100728.32
2022-10-05T06:14:43.695Z,100725.8
2022-10-05T06:16:49.152Z,100731.19
2022-10-05T06:18:54.545Z,100725.02
2022-10-05T06:20:58.969Z,100729.93
2022-10-05T06:23:03.903Z,100731.46
2022-10-05T06:25:08.228Z,100732.31
2022-10-05T06:27:12.572Z,100733.68
2022-10-05T06:29:16.900Z,100737.8
2022-10-05T06:31:21.338Z,100741.63
2022-10-05T06:33:25.798Z,100745.34
2022-10-05T06:35:30.120Z,100742.72
2022-10-05T06:37:34.555Z,100744.32
2022-10-05T06:39:38.921Z,100746.06
2022-10-05T06:41:43.294Z,100749.5
2022-10-05T06:43:47.685Z,100750.08
2022-10-05T06:45:52.126Z,100751.84
2022-10-05T06:47:56.978Z,100751.27
2022-10-05T06:50:08.264Z,100749.78
2022-10-05T06:52:12.607Z,100750.63
2022-10-05T06:54:16.953Z,100755.55
2022-10-05T06:56:21.257Z,100753.36
2022-10-05T06:58:25.636Z,100751.42
2022-10-05T07:00:29.948Z,100750.09
2022-10-05T07:02:34.456Z,100749.17
2022-10-05T07:04:38.891Z,100748.89
2022-10-05T07:06:43.222Z,100745.39
2022-10-05T07:08:47.554Z,100744.47
2022-10-05T07:10:51.889Z,100748.89
2022-10-05T07:12:56.242Z,100749.06
2022-10-05T07:15:00.583Z,100746.48
2022-10-05T07:17:05.048Z,100744.43
2022-10-05T07:19:09.427Z,100747.16
2022-10-05T07:21:13.765Z,100748.66
2022-10-05T07:23:18.075Z,100748.66
2022-10-05T07:25:22.441Z,100748.35
2022-10-05T07:27:26.859Z,100750.13
2022-10-05T07:29:31.219Z,100755.17
2022-10-05T07:31:35.533Z,100759.09
2022-10-05T07:33:39.906Z,100757.22
2022-10-05T07:35:44.263Z,100762.3
2022-10-05T07:37:48.555Z,100763.63
2022-10-05T07:40:02.134Z,100765.6
2022-10-05T07:42:06.527Z,100761.07
2022-10-05T07:44:13.910Z,100758.52
2022-10-05T07:46:18.471Z,100758.98
2022-10-05T07:48:23.053Z,100762.16
2022-10-05T07:50:27.416Z,100756.84
2022-10-05T07:52:35.654Z,100749.82
2022-10-05T07:54:39.978Z,100752
2022-10-05T07:56:44.783Z,100749.55
2022-10-05T07:58:49.812Z,100748.22
2022-10-05T08:00:54.214Z,100744.74
2022-10-05T08:02:58.732Z,100744.5
2022-10-05T08:05:03.136Z,100740.34
2022-10-05T08:07:07.486Z,100740.11
2022-10-05T08:09:11.818Z,100745.36
2022-10-05T08:11:16.179Z,100737.96
2022-10-05T08:13:20.564Z,100738.55
2022-10-05T08:15:24.908Z,100738.23
2022-10-05T08:17:29.290Z,100740
2022-10-05T08:19:33.628Z,100735.06
2022-10-05T08:21:37.974Z,100736.77
2022-10-05T08:23:42.325Z,100733.11
2022-10-05T08:25:46.654Z,100735.7
2022-10-05T08:27:51.042Z,100734.78
2022-10-05T08:29:55.410Z,100732.88
2022-10-05T08:31:59.766Z,100733.66
2022-10-05T08:34:04.159Z,100736.32
2022-10-05T08:36:08.496Z,100736.39
2022-10-05T08:38:12.857Z,100734.17
2022-10-05T08:40:17.191Z,100734.66
2022-10-05T08:42:21.534Z,100741.13
2022-10-05T08:44:25.909Z,100739.77
2022-10-05T08:46:30.485Z,100732.44
2022-10-05T08:48:34.928Z,100730.9
2022-10-05T08:50:39.288Z,100728.03
2022-10-05T08:52:43.679Z,100730.28
2022-10-05T08:54:48.026Z,100734.85
2022-10-05T08:56:52.368Z,100739.35
2022-10-05T08:58:56.672Z,100741.09
2022-10-05T09:01:01.128Z,100737.17
2022-10-05T09:03:05.668Z,100737.38
2022-10-05T09:05:10.029Z,100733.55
2022-10-05T09:07:14.378Z,100735.97
2022-10-05T09:09:18.871Z,100728.23
2022-10-05T09:11:23.234Z,100732.8
2022-10-05T09:13:27.588Z,100736.52
2022-10-05T09:15:32.075Z,100733.83
2022-10-05T09:17:40.323Z,100734.41
2022-10-05T09:19:44.688Z,100736.59
2022-10-05T09:21:49.989Z,100737.88
2022-10-05T09:23:54.506Z,100737.92
2022-10-05T09:25:58.804Z,100736.14
2022-10-05T09:28:03.307Z,100741.56
2022-10-05T09:30:07.746Z,100734.2
2022-10-05T09:32:17.378Z,100742.69
2022-10-05T09:34:21.740Z,100745.01
2022-10-05T09:36:26.162Z,100749.17
2022-10-05T09:38:30.533Z,100744.19
2022-10-05T09:40:34.873Z,100743.16
2022-10-05T09:42:39.223Z,100738.29
2022-10-05T09:44:43.577Z,100741.84
2022-10-05T09:46:47.931Z,100740.06
2022-10-05T09:48:52.262Z,100734.8
2022-10-05T09:50:56.580Z,100732.73
2022-10-05T09:53:00.928Z,100731.67
2022-10-05T09:55:05.257Z,100729.56
2022-10-05T09:57:09.622Z,100723.87
2022-10-05T09:59:13.954Z,100722.16
2022-10-05T10:01:34.689Z,100722.02
2022-10-05T10:03:39.225Z,100716.16
2022-10-05T10:05:43.542Z,100710.8
2022-10-05T10:07:47.892Z,100711.95
2022-10-05T10:09:52.571Z,100713.24
2022-10-05T10:11:56.916Z,100713.23
2022-10-05T10:14:01.286Z,100709.42
2022-10-05T10:16:05.945Z,100707.3
2022-10-05T10:18:10.533Z,100707.87
2022-10-05T10:20:14.913Z,100704.38
2022-10-05T10:22:19.235Z,100704.86
2022-10-05T10:24:23.648Z,100701.67
2022-10-05T10:26:28.032Z,100700.81
2022-10-05T10:28:32.579Z,100701.56
2022-10-05T10:30:37.726Z,100702.22
2022-10-05T10:32:42.081Z,100694.16
2022-10-05T10:34:46.456Z,100694.91
2022-10-05T10:36:51.706Z,100692.22
2022-10-05T10:38:56.208Z,100688.78
2022-10-05T10:41:00.582Z,100697
2022-10-05T10:43:04.918Z,100696.97
2022-10-05T10:45:09.298Z,100700.06
2022-10-05T10:47:13.680Z,100698.87
2022-10-05T10:49:18.045Z,100698.77
2022-10-05T10:51:22.404Z,100699.58
2022-10-05T10:53:26.724Z,100701.79
2022-10-05T10:55:31.096Z,100702.48
2022-10-05T10:57:35.432Z,100701.86
2022-10-05T10:59:39.781Z,100697.83
2022-10-05T11:01:44.302Z,100702.05
2022-10-05T11:03:48.874Z,100698.22
2022-10-05T11:05:53.197Z,100696.39
2022-10-05T11:07:57.603Z,100697.95
2022-10-05T11:10:02.027Z,100693.08
2022-10-05T11:12:06.416Z,100690.81
2022-10-05T11:14:10.783Z,100689.25
2022-10-05T11:16:19.879Z,100686.25
2022-10-05T11:18:24.410Z,100681.5
2022-10-05T11:20:28.766Z,100670.73
2022-10-05T11:22:33.137Z,100668.83
2022-10-05T11:24:37.462Z,100668.74
2022-10-05T11:26:41.834Z,100663.72
2022-10-05T11:28:46.155Z,100666.32
2022-10-05T11:30:52.379Z,100663.67
2022-10-05T11:32:56.897Z,100659.17
2022-10-05T11:35:01.258Z,100662.58
2022-10-05T11:37:05.607Z,100660.34
2022-10-05T11:39:09.952Z,100654.78
2022-10-05T11:41:14.337Z,100654.8
2022-10-05T11:43:18.707Z,100650.95
2022-10-05T11:45:23.172Z,100638.64
2022-10-05T11:47:27.538Z,100635.28
2022-10-05T11:49:31.929Z,100635.92
2022-10-05T11:51:36.416Z,100628.66
2022-10-05T11:53:40.808Z,100627.76
2022-10-05T11:55:45.261Z,100627.92
2022-10-05T11:57:49.623Z,100628.31
2022-10-05T11:59:53.983Z,100625.41
2022-10-05T12:01:58.355Z,100624.2
2022-10-05T12:04:02.996Z,100620.97
2022-10-05T12:06:07.434Z,100616.25
2022-10-05T12:08:11.790Z,100617.23
2022-10-05T12:10:16.193Z,100605.3
2022-10-05T12:12:20.505Z,100607.25
2022-10-05T12:14:25.266Z,100605.81
2022-10-05T12:16:29.859Z,100603.89
2022-10-05T12:18:34.238Z,100606.38
2022-10-05T12:20:38.592Z,100608.3
2022-10-05T12:22:42.990Z,100600.41
2022-10-05T12:24:47.347Z,100598.19
2022-10-05T12:26:51.692Z,100597.28
2022-10-05T12:28:56.091Z,100600.95
2022-10-05T12:31:00.590Z,100599.45
2022-10-05T12:33:05.075Z,100601.5
2022-10-05T12:35:09.460Z,100601.31
2022-10-05T12:37:13.855Z,100596.56
2022-10-05T12:39:18.172Z,100594.94
2022-10-05T12:41:22.511Z,100604.63
2022-10-05T12:43:26.862Z,100599.16
2022-10-05T12:45:31.341Z,100605.03
2022-10-05T12:47:35.922Z,100598.11
2022-10-05T12:49:40.321Z,100596.28
2022-10-05T12:51:44.674Z,100597.14
2022-10-05T12:53:49.034Z,100602.86
2022-10-05T12:55:53.360Z,100597.4
2022-10-05T12:57:57.614Z,100600.3
2022-10-05T13:00:02.135Z,100595.5
2022-10-05T13:02:06.518Z,100591.94
2022-10-05T13:04:10.914Z,100589.77
2022-10-05T13:06:16.038Z,100587.33
2022-10-05T13:08:20.405Z,100585.08
2022-10-05T13:10:24.776Z,100583.2
2022-10-05T13:12:29.106Z,100585.86
2022-10-05T13:14:33.506Z,100588.7
2022-10-05T13:16:37.963Z,100583.59
2022-10-05T13:18:42.437Z,100584.17
2022-10-05T13:20:46.797Z,100582.48
2022-10-05T13:22:51.144Z,100573.44
2022-10-05T13:24:55.484Z,100573.63
2022-10-05T13:26:59.804Z,100574.65
2022-10-05T13:29:04.158Z,100576.19
2022-10-05T13:31:08.684Z,100573.8
2022-10-05T13:33:13.186Z,100577.95
2022-10-05T13:35:17.574Z,100569.69
2022-10-05T13:37:21.903Z,100568.7
2022-10-05T13:39:26.234Z,100567.19
2022-10-05T13:41:30.590Z,100566
2022-10-05T13:43:35.095Z,100563.72
2022-10-05T13:45:39.643Z,100561.94
2022-10-05T13:47:44.103Z,100559.99
2022-10-05T13:49:48.467Z,100560.34
2022-10-05T13:51:52.920Z,100560.06
2022-10-05T13:53:57.277Z,100567.93
2022-10-05T13:56:01.638Z,100569.2
2022-10-05T13:58:06.066Z,100570.64
2022-10-05T14:00:10.672Z,100564.8
2022-10-05T14:02:15.254Z,100564.08
2022-10-05T14:04:19.769Z,100561.23
2022-10-05T14:06:24.133Z,100563.3
2022-10-05T14:08:28.506Z,100564.52
2022-10-05T14:10:32.841Z,100566.52
2022-10-05T14:12:37.223Z,100560.98
2022-10-05T14:14:41.585Z,100561.63
2022-10-05T14:16:46.212Z,100563.77
2022-10-05T14:18:50.819Z,100560.47
2022-10-05T14:20:55.149Z,100558.88
2022-10-05T14:22:59.635Z,100556.14
2022-10-05T14:25:04.440Z,100551.5
2022-10-05T14:27:08.811Z,100550.55
2022-10-05T14:29:13.156Z,100544.19
2022-10-05T14:31:18.479Z,100544.66
2022-10-05T14:33:23.590Z,100548.48
2022-10-05T14:35:27.912Z,100545.23
2022-10-05T14:37:32.279Z,100538.13
2022-10-05T14:39:36.654Z,100536.77
2022-10-05T14:41:41.036Z,100534.44
2022-10-05T14:43:45.364Z,100532.25
2022-10-05T14:45:49.822Z,100537.73
2022-10-05T14:47:54.310Z,100538.4
2022-10-05T14:49:58.725Z,100540.41
2022-10-05T14:52:03.094Z,100535.34
2022-10-05T14:54:07.467Z,100536.39
2022-10-05T14:56:12.035Z,100533.41
2022-10-05T14:58:17.108Z,100533.5
2022-10-05T15:00:21.467Z,100528.59
2022-10-05T15:02:25.938Z,100524.06
2022-10-05T15:04:30.453Z,100520.67
2022-10-05T15:06:34.806Z,100515
2022-10-05T15:08:39.133Z,100512.95
2022-10-05T15:10:43.495Z,100513.19
2022-10-05T15:12:48.244Z,100515.22
2022-10-05T15:14:52.625Z,100514.27
2022-10-05T15:16:57.302Z,100515.69
2022-10-05T15:19:01.740Z,100517.58
2022-10-05T15:21:06.085Z,100518.77
2022-10-05T15:23:10.392Z,100516.17
2022-10-05T15:25:14.750Z,100511.83
2022-10-05T15:27:19.259Z,100513.22
2022-10-05T15:29:23.618Z,100511.23
2022-10-05T15:31:27.940Z,100509.14
2022-10-05T15:33:32.330Z,100512.86
2022-10-05T15:35:36.662Z,100513.5
2022-10-05T15:37:41.028Z,100510.47
2022-10-05T15:39:45.388Z,100508.59
2022-10-05T15:41:49.744Z,100502.44
2022-10-05T15:43:54.126Z,100504.42
2022-10-05T15:45:58.635Z,100499.78
2022-10-05T15:48:03.180Z,100497.14
2022-10-05T15:50:07.616Z,100501.13
2022-10-05T15:52:11.988Z,100503.89
2022-10-05T15:54:16.357Z,100507.38
2022-10-05T15:56:20.733Z,100502.61
2022-10-05T15:58:25.909Z,100510.09
2022-10-05T16:00:30.221Z,100500.97
2022-10-05T16:02:34.845Z,100501.73
2022-10-05T16:04:39.381Z,100502.34
2022-10-05T16:06:43.868Z,100504.98
2022-10-05T16:08:48.215Z,100502.53
2022-10-05T16:10:52.572Z,100501.12
2022-10-05T16:12:56.942Z,100496.05
2022-10-05T16:15:01.309Z,100500.55
2022-10-05T16:17:06.052Z,100497.94
2022-10-05T16:19:11.427Z,100499.8
2022-10-05T16:21:15.869Z,100498.3
2022-10-05T16:23:20.240Z,100501.5
2022-10-05T16:25:24.659Z,100500.46
2022-10-05T16:27:29.023Z,100506.41
2022-10-05T16:29:33.372Z,100509.06
2022-10-05T16:31:37.706Z,100502.13
2022-10-05T16:33:47.547Z,100509.09
2022-10-05T16:35:51.940Z,100507.01
2022-10-05T16:37:56.322Z,100509.63
2022-10-05T16:40:00.661Z,100507.84
2022-10-05T16:42:05.018Z,100510.11
2022-10-05T16:44:09.358Z,100503.55
2022-10-05T16:46:13.842Z,100511.47
2022-10-05T16:48:18.275Z,100504.29
2022-10-05T16:50:22.630Z,100513.83
2022-10-05T16:52:27.091Z,100508.09
2022-10-05T16:54:31.455Z,100514.73
2022-10-05T16:56:35.873Z,100517.35
2022-10-05T16:58:40.245Z,100516.83
2022-10-05T17:00:44.584Z,100518.2
2022-10-05T17:02:49.115Z,100530.82
2022-10-05T17:04:53.584Z,100526.48
2022-10-05T17:06:58.007Z,100524.23
2022-10-05T17:09:02.386Z,100529.38
2022-10-05T17:11:06.789Z,100527.95
2022-10-05T17:13:11.155Z,100531.49
2022-10-05T17:15:15.480Z,100524.28
2022-10-05T17:17:19.825Z,100525.52
2022-10-05T17:19:24.134Z,100529.23
2022-10-05T17:21:28.454Z,100527.42
2022-10-05T17:23:32.833Z,100527.16
2022-10-05T17:25:37.194Z,100528.22
2022-10-05T17:27:41.621Z,100523.53
2022-10-05T17:29:46.050Z,100524
2022-10-05T17:31:50.390Z,100518.3
2022-10-05T17:33:54.763Z,100511.03
2022-10-05T17:35:59.105Z,100508.16
2022-10-05T17:38:03.475Z,100507.96
2022-10-05T17:40:07.832Z,100509.09
2022-10-05T17:42:12.373Z,100506.53
2022-10-05T17:44:16.738Z,100501.59
2022-10-05T17:46:21.199Z,100502.97
2022-10-05T17:48:26.554Z,100505.56
2022-10-05T17:50:31.172Z,100497.45
2022-10-05T17:52:35.571Z,100501.09
2022-10-05T17:54:39.993Z,100498.09
2022-10-05T17:56:44.422Z,100500.14
2022-10-05T17:58:48.760Z,100504.36
2022-10-05T18:00:53.102Z,100502.46
2022-10-05T18:02:57.588Z,100502.34
2022-10-05T18:05:02.077Z,100496.88
2022-10-05T18:07:06.430Z,100502.41
2022-10-05T18:09:10.759Z,100500.74
2022-10-05T18:11:15.098Z,100495.81
2022-10-05T18:13:19.446Z,100504.16
2022-10-05T18:15:23.850Z,100506.48
2022-10-05T18:17:29.614Z,100503.27
2022-10-05T18:19:33.935Z,100498.84
2022-10-05T18:21:38.272Z,100497.28
2022-10-05T18:23:42.638Z,100502.27
2022-10-05T18:25:47.054Z,100502.93
2022-10-05T18:27:51.441Z,100501.88
2022-10-05T18:29:55.790Z,100501.34
2022-10-05T18:32:00.115Z,100501.37
2022-10-05T18:34:04.476Z,100499.69
2022-10-05T18:36:08.910Z,100500.52
2022-10-05T18:38:13.269Z,100496.91
2022-10-05T18:40:17.661Z,100498.78
2022-10-05T18:42:22.029Z,100494.86
2022-10-05T18:44:26.474Z,100494.27
2022-10-05T18:46:31.016Z,100496.05
2022-10-05T18:48:35.648Z,100495.38
2022-10-05T18:50:40.001Z,100494.39
2022-10-05T18:52:44.338Z,100497.5
2022-10-05T18:54:48.691Z,100493.44
2022-10-05T18:56:53.062Z,100487.81
2022-10-05T18:58:58.152Z,100490.08
2022-10-05T19:01:02.602Z,100488.36
2022-10-05T19:03:06.973Z,100484.98
2022-10-05T19:05:46.710Z,100489.59
2022-10-05T19:07:52.671Z,100488.82
2022-10-05T19:09:57.024Z,100491.73
2022-10-05T19:12:01.637Z,100492.94
2022-10-05T19:14:06.230Z,100499.49
2022-10-05T19:16:10.818Z,100489.65
2022-10-05T19:18:15.347Z,100495.22
2022-10-05T19:20:20.060Z,100496.16
2022-10-05T19:22:24.473Z,100494.47
2022-10-05T19:24:28.980Z,100500.38
2022-10-05T19:26:33.476Z,100498.09
2022-10-05T19:28:38.160Z,100498.89
2022-10-05T19:30:42.690Z,100494.59
2022-10-05T19:32:47.154Z,100495.29
2022-10-05T19:34:51.493Z,100493.07
2022-10-05T19:36:55.852Z,100492.66
2022-10-05T19:39:00.340Z,100494.78
2022-10-05T19:41:04.683Z,100494.09
2022-10-05T19:43:09.049Z,100497.98
2022-10-05T19:45:13.411Z,100502.89
2022-10-05T19:47:17.785Z,100505.94
2022-10-05T19:49:22.169Z,100504.73
2022-10-05T19:51:26.502Z,100506.86
2022-10-05T19:53:30.836Z,100505.77
2022-10-05T19:55:35.349Z,100502.44
2022-10-05T19:57:39.856Z,100503.21
2022-10-05T19:59:44.227Z,100506.59
2022-10-05T20:01:48.717Z,100510.03
2022-10-05T20:03:53.229Z,100507.64
2022-10-05T20:05:57.638Z,100505.22
2022-10-05T20:08:02.086Z,100510.83
2022-10-05T20:10:06.597Z,100513.61
2022-10-05T20:12:10.990Z,100518.03
2022-10-05T20:14:15.469Z,100518.28
2022-10-05T20:16:20.475Z,100518.77
2022-10-05T20:18:25.669Z,100521.25
2022-10-05T20:20:30.681Z,100523.98
2022-10-05T20:22:35.074Z,100525.59
2022-10-05T20:24:39.476Z,100527.39
2022-10-05T20:26:43.823Z,100528.91
2022-10-05T20:28:48.384Z,100531.53
2022-10-05T20:30:52.888Z,100535.58
2022-10-05T20:32:57.243Z,100536.77
2022-10-05T20:35:01.662Z,100535.86
2022-10-05T20:37:06.012Z,100538.8
2022-10-05T20:39:10.362Z,100541.04
2022-10-05T20:41:14.744Z,100544.22
2022-10-05T20:43:19.228Z,100549.09
2022-10-05T20:45:23.598Z,100548.69
2022-10-05T20:47:27.977Z,100550.52
2022-10-05T20:49:32.319Z,100555.98
2022-10-05T20:51:36.677Z,100556.36
2022-10-05T20:53:41.163Z,100557.83
2022-10-05T20:55:45.608Z,100557.83
2022-10-05T20:57:49.959Z,100558.85
2022-10-05T20:59:54.292Z,100560.66
2022-10-05T21:01:58.659Z,100555.98
2022-10-05T21:04:02.985Z,100558.3
2022-10-05T21:06:07.465Z,100557.28
2022-10-05T21:08:11.948Z,100558.38
2022-10-05T21:10:16.358Z,100562.97
2022-10-05T21:12:20.722Z,100557.86
2022-10-05T21:14:25.114Z,100558.89
2022-10-05T21:16:29.623Z,100565.13
2022-10-05T21:18:34.235Z,100564.59
2022-10-05T21:20:38.672Z,100566.38
2022-10-05T21:22:43.078Z,100566.66
2022-10-05T21:24:47.433Z,100572.97
2022-10-05T21:26:51.794Z,100575.23
2022-10-05T21:28:56.156Z,100579.67
2022-10-05T21:31:00.471Z,100581.86
2022-10-05T21:33:04.856Z,100585.81
2022-10-05T21:35:09.204Z,100590.11
2022-10-05T21:37:13.616Z,100594.75
2022-10-05T21:39:17.973Z,100597.11
2022-10-05T21:41:22.370Z,100600.45
2022-10-05T21:43:27.813Z,100602.13
2022-10-05T21:45:32.979Z,100607.78
2022-10-05T21:47:37.451Z,100605.5
2022-10-05T21:49:41.777Z,100605.75
2022-10-05T21:51:46.141Z,100610.59
2022-10-05T21:53:50.558Z,100613.92
2022-10-05T21:55:55.728Z,100613.25
2022-10-05T21:58:06.185Z,100618.56
2022-10-05T22:00:10.516Z,100619.39
2022-10-05T22:02:14.849Z,100619.59
2022-10-05T22:04:19.199Z,100619.42
2022-10-05T22:06:23.620Z,100621.37
2022-10-05T22:08:28.327Z,100623
2022-10-05T22:10:33.791Z,100625.87
2022-10-05T22:12:38.110Z,100626.52
2022-10-05T22:14:42.482Z,100626.17
2022-10-05T22:16:46.969Z,100629.78
2022-10-05T22:18:51.419Z,100629.51
2022-10-05T22:20:55.801Z,100638.3
2022-10-05T22:23:00.151Z,100631.83
2022-10-05T22:25:04.542Z,100635.23
2022-10-05T22:27:08.905Z,100638.56
2022-10-05T22:29:13.228Z,100638.02
2022-10-05T22:31:17.685Z,100639.89
2022-10-05T22:33:22.077Z,100635.19
2022-10-05T22:35:26.406Z,100635.87
2022-10-05T22:37:30.723Z,100636.58
2022-10-05T22:39:35.026Z,100645.58
2022-10-05T22:41:39.345Z,100646.91
2022-10-05T22:43:43.689Z,100645.92
2022-10-05T22:45:48.188Z,100648.13
2022-10-05T22:47:52.673Z,100648.92
2022-10-05T22:49:57.017Z,100648.34
2022-10-05T22:52:01.364Z,100651.81
2022-10-05T22:54:05.742Z,100652.32
2022-10-05T22:56:10.218Z,100651.3
2022-10-05T22:58:14.659Z,100656.41
2022-10-05T23:00:19.387Z,100651.05
2022-10-05T23:02:31.199Z,100659.3
2022-10-05T23:04:35.711Z,100657.33
2022-10-05T23:06:40.050Z,100657.8
2022-10-05T23:08:44.491Z,100656.85
2022-10-05T23:10:48.947Z,100658.22
2022-10-05T23:12:56.093Z,100662.44
2022-10-05T23:15:04.712Z,100661.48
2022-10-05T23:17:09.064Z,100667.38
2022-10-05T23:19:13.401Z,100664.34
2022-10-05T23:21:17.752Z,100665.65
2022-10-05T23:23:22.116Z,100668.23
2022-10-05T23:25:26.523Z,100669.88
2022-10-05T23:27:30.901Z,100670.08
2022-10-05T23:29:35.262Z,100670.86
2022-10-05T23:31:39.618Z,100674.38
2022-10-05T23:33:44.024Z,100671.71
2022-10-05T23:35:48.374Z,100674.47
2022-10-05T23:37:52.716Z,100676.76
2022-10-05T23:39:57.065Z,100676.28
2022-10-05T23:42:01.382Z,100679.79
2022-10-05T23:44:05.736Z,100677.2
2022-10-05T23:46:10.276Z,100678.29
2022-10-05T23:48:14.874Z,100679.52